sensor_id;sensor_type;location;lat;lon;timestamp;P1;durP1;ratioP1;P2;durP2;ratioP2
179;SDS011;78;48.788;9.010;2023-03-01T00:00:37;46.40;;;16.30;;
179;SDS011;78;48.788;9.010;2023-03-01T00:03:04;43.27;;;16.87;;
179;SDS011;78;48.788;9.010;2023-03-01T00:05:30;47.50;;;17.70;;
179;SDS011;78;48.788;9.010;2023-03-01T00:07:57;43.10;;;15.93;;
179;SDS011;78;48.788;9.010;2023-03-01T00:10:23;41.20;;;16.07;;
179;SDS011;78;48.788;9.010;2023-03-01T00:12:49;45.10;;;17.10;;
179;SDS011;78;48.788;9.010;2023-03-01T00:15:16;49.20;;;17.00;;
179;SDS011;78;48.788;9.010;2023-03-01T00:17:42;49.10;;;18.80;;
179;SDS011;78;48.788;9.010;2023-03-01T00:20:08;47.60;;;18.50;;
179;SDS011;78;48.788;9.010;2023-03-01T00:22:38;50.03;;;19.37;;
179;SDS011;78;48.788;9.010;2023-03-01T00:25:04;49.87;;;17.87;;
179;SDS011;78;48.788;9.010;2023-03-01T00:27:30;49.73;;;16.20;;
179;SDS011;78;48.788;9.010;2023-03-01T00:29:57;48.67;;;18.30;;
179;SDS011;78;48.788;9.010;2023-03-01T00:32:23;46.63;;;17.33;;
179;SDS011;78;48.788;9.010;2023-03-01T00:34:50;46.03;;;16.77;;
179;SDS011;78;48.788;9.010;2023-03-01T00:37:23;43.87;;;16.17;;
179;SDS011;78;48.788;9.010;2023-03-01T00:39:49;42.13;;;15.97;;
179;SDS011;78;48.788;9.010;2023-03-01T00:42:17;47.27;;;17.67;;
179;SDS011;78;48.788;9.010;2023-03-01T00:44:43;56.63;;;17.33;;
179;SDS011;78;48.788;9.010;2023-03-01T00:47:10;50.97;;;17.37;;
179;SDS011;78;48.788;9.010;2023-03-01T00:49:36;45.17;;;17.80;;
179;SDS011;78;48.788;9.010;2023-03-01T00:52:02;47.23;;;17.43;;
179;SDS011;78;48.788;9.010;2023-03-01T00:54:28;44.40;;;17.10;;
179;SDS011;78;48.788;9.010;2023-03-01T00:56:55;49.07;;;18.13;;
179;SDS011;78;48.788;9.010;2023-03-01T00:59:21;47.63;;;17.57;;
179;SDS011;78;48.788;9.010;2023-03-01T01:01:48;49.73;;;17.70;;
179;SDS011;78;48.788;9.010;2023-03-01T01:04:15;46.63;;;16.87;;
179;SDS011;78;48.788;9.010;2023-03-01T01:06:45;44.43;;;16.60;;
179;SDS011;78;48.788;9.010;2023-03-01T01:09:13;42.97;;;16.27;;
179;SDS011;78;48.788;9.010;2023-03-01T01:11:51;46.17;;;16.40;;
179;SDS011;78;48.788;9.010;2023-03-01T01:14:17;40.97;;;15.93;;
179;SDS011;78;48.788;9.010;2023-03-01T01:16:45;45.10;;;17.10;;
179;SDS011;78;48.788;9.010;2023-03-01T01:19:11;48.73;;;16.83;;
179;SDS011;78;48.788;9.010;2023-03-01T01:21:38;45.13;;;16.80;;
179;SDS011;78;48.788;9.010;2023-03-01T01:24:05;43.20;;;16.17;;
179;SDS011;78;48.788;9.010;2023-03-01T01:26:32;43.10;;;16.10;;
179;SDS011;78;48.788;9.010;2023-03-01T01:28:59;47.87;;;17.17;;
179;SDS011;78;48.788;9.010;2023-03-01T01:31:26;47.40;;;16.23;;
179;SDS011;78;48.788;9.010;2023-03-01T01:33:53;49.17;;;17.00;;
179;SDS011;78;48.788;9.010;2023-03-01T01:36:20;41.80;;;16.43;;
179;SDS011;78;48.788;9.010;2023-03-01T01:38:46;45.77;;;16.53;;
179;SDS011;78;48.788;9.010;2023-03-01T01:41:13;48.37;;;18.37;;
179;SDS011;78;48.788;9.010;2023-03-01T01:43:43;46.77;;;17.33;;
179;SDS011;78;48.788;9.010;2023-03-01T01:46:28;47.73;;;17.73;;
179;SDS011;78;48.788;9.010;2023-03-01T01:48:59;51.00;;;18.13;;
179;SDS011;78;48.788;9.010;2023-03-01T01:51:36;47.57;;;17.27;;
179;SDS011;78;48.788;9.010;2023-03-01T01:54:11;48.97;;;18.80;;
179;SDS011;78;48.788;9.010;2023-03-01T01:56:39;52.00;;;17.53;;
179;SDS011;78;48.788;9.010;2023-03-01T01:59:07;47.00;;;17.70;;
179;SDS011;78;48.788;9.010;2023-03-01T02:01:34;60.37;;;18.87;;
179;SDS011;78;48.788;9.010;2023-03-01T02:04:00;43.63;;;17.03;;
179;SDS011;78;48.788;9.010;2023-03-01T02:08:57;48.13;;;17.63;;
179;SDS011;78;48.788;9.010;2023-03-01T02:11:25;49.10;;;18.53;;
179;SDS011;78;48.788;9.010;2023-03-01T02:13:51;47.00;;;17.23;;
179;SDS011;78;48.788;9.010;2023-03-01T02:16:17;47.27;;;18.30;;
179;SDS011;78;48.788;9.010;2023-03-01T02:18:44;48.97;;;18.07;;
179;SDS011;78;48.788;9.010;2023-03-01T02:23:39;50.70;;;18.60;;
179;SDS011;78;48.788;9.010;2023-03-01T02:26:14;47.70;;;16.73;;
179;SDS011;78;48.788;9.010;2023-03-01T02:28:42;50.83;;;19.93;;
179;SDS011;78;48.788;9.010;2023-03-01T02:31:09;47.70;;;17.90;;
179;SDS011;78;48.788;9.010;2023-03-01T02:33:54;47.47;;;17.80;;
179;SDS011;78;48.788;9.010;2023-03-01T02:36:22;51.10;;;18.80;;
179;SDS011;78;48.788;9.010;2023-03-01T02:38:50;48.03;;;18.80;;
179;SDS011;78;48.788;9.010;2023-03-01T02:41:17;53.43;;;18.67;;
179;SDS011;78;48.788;9.010;2023-03-01T02:43:45;48.77;;;18.30;;
179;SDS011;78;48.788;9.010;2023-03-01T02:46:18;53.73;;;18.43;;
179;SDS011;78;48.788;9.010;2023-03-01T02:48:46;48.37;;;18.77;;
179;SDS011;78;48.788;9.010;2023-03-01T02:56:42;53.07;;;19.13;;
179;SDS011;78;48.788;9.010;2023-03-01T02:59:08;52.13;;;19.60;;
179;SDS011;78;48.788;9.010;2023-03-01T03:01:35;54.50;;;20.30;;
179;SDS011;78;48.788;9.010;2023-03-01T03:04:04;53.20;;;19.70;;
179;SDS011;78;48.788;9.010;2023-03-01T03:06:32;54.93;;;20.77;;
179;SDS011;78;48.788;9.010;2023-03-01T03:08:59;57.00;;;20.57;;
179;SDS011;78;48.788;9.010;2023-03-01T03:11:25;51.17;;;20.00;;
179;SDS011;78;48.788;9.010;2023-03-01T03:13:52;52.57;;;20.27;;
179;SDS011;78;48.788;9.010;2023-03-01T03:16:18;51.57;;;19.97;;
179;SDS011;78;48.788;9.010;2023-03-01T03:18:44;52.50;;;20.80;;
179;SDS011;78;48.788;9.010;2023-03-01T03:21:11;63.57;;;22.67;;
179;SDS011;78;48.788;9.010;2023-03-01T03:23:38;54.03;;;22.13;;
179;SDS011;78;48.788;9.010;2023-03-01T03:26:05;55.93;;;20.90;;
179;SDS011;78;48.788;9.010;2023-03-01T03:28:32;50.60;;;19.60;;
179;SDS011;78;48.788;9.010;2023-03-01T03:30:58;55.40;;;21.60;;
179;SDS011;78;48.788;9.010;2023-03-01T03:33:29;51.47;;;21.57;;
179;SDS011;78;48.788;9.010;2023-03-01T03:35:55;54.97;;;20.33;;
179;SDS011;78;48.788;9.010;2023-03-01T03:38:21;54.20;;;20.80;;
179;SDS011;78;48.788;9.010;2023-03-01T03:41:04;50.70;;;20.87;;
179;SDS011;78;48.788;9.010;2023-03-01T03:43:33;54.80;;;21.17;;
179;SDS011;78;48.788;9.010;2023-03-01T03:46:00;54.53;;;22.40;;
179;SDS011;78;48.788;9.010;2023-03-01T03:48:31;53.40;;;21.97;;
179;SDS011;78;48.788;9.010;2023-03-01T03:50:58;64.00;;;23.80;;
179;SDS011;78;48.788;9.010;2023-03-01T03:53:26;58.50;;;23.10;;
179;SDS011;78;48.788;9.010;2023-03-01T03:55:52;57.63;;;22.90;;
179;SDS011;78;48.788;9.010;2023-03-01T03:58:20;62.17;;;24.00;;
179;SDS011;78;48.788;9.010;2023-03-01T04:00:47;58.77;;;22.93;;
179;SDS011;78;48.788;9.010;2023-03-01T04:03:15;58.87;;;23.20;;
179;SDS011;78;48.788;9.010;2023-03-01T04:05:42;58.17;;;22.40;;
179;SDS011;78;48.788;9.010;2023-03-01T04:08:08;58.70;;;23.20;;
179;SDS011;78;48.788;9.010;2023-03-01T04:10:36;56.80;;;23.17;;
179;SDS011;78;48.788;9.010;2023-03-01T04:13:03;57.20;;;22.50;;
179;SDS011;78;48.788;9.010;2023-03-01T04:15:29;62.10;;;23.87;;
179;SDS011;78;48.788;9.010;2023-03-01T04:17:56;55.43;;;22.50;;
179;SDS011;78;48.788;9.010;2023-03-01T04:20:25;57.10;;;22.80;;
179;SDS011;78;48.788;9.010;2023-03-01T04:22:58;53.00;;;21.73;;
179;SDS011;78;48.788;9.010;2023-03-01T04:25:33;57.20;;;22.10;;
179;SDS011;78;48.788;9.010;2023-03-01T04:28:00;55.33;;;22.30;;
179;SDS011;78;48.788;9.010;2023-03-01T04:30:27;56.90;;;23.13;;
179;SDS011;78;48.788;9.010;2023-03-01T04:32:53;57.27;;;23.50;;
179;SDS011;78;48.788;9.010;2023-03-01T04:35:19;57.67;;;23.10;;
179;SDS011;78;48.788;9.010;2023-03-01T04:37:45;59.30;;;24.40;;
179;SDS011;78;48.788;9.010;2023-03-01T04:40:12;59.80;;;23.60;;
179;SDS011;78;48.788;9.010;2023-03-01T04:42:41;60.10;;;24.40;;
179;SDS011;78;48.788;9.010;2023-03-01T04:45:07;58.60;;;23.00;;
179;SDS011;78;48.788;9.010;2023-03-01T04:47:39;62.53;;;24.53;;
179;SDS011;78;48.788;9.010;2023-03-01T04:50:05;56.50;;;23.57;;
179;SDS011;78;48.788;9.010;2023-03-01T04:52:31;55.90;;;22.93;;
179;SDS011;78;48.788;9.010;2023-03-01T04:54:57;69.87;;;26.40;;
179;SDS011;78;48.788;9.010;2023-03-01T04:57:23;60.30;;;25.20;;
179;SDS011;78;48.788;9.010;2023-03-01T04:59:50;67.20;;;26.03;;
179;SDS011;78;48.788;9.010;2023-03-01T05:02:16;65.93;;;25.90;;
179;SDS011;78;48.788;9.010;2023-03-01T05:04:42;69.47;;;25.57;;
179;SDS011;78;48.788;9.010;2023-03-01T05:07:09;65.47;;;25.00;;
179;SDS011;78;48.788;9.010;2023-03-01T05:09:38;63.20;;;23.90;;
179;SDS011;78;48.788;9.010;2023-03-01T05:12:04;61.10;;;24.07;;
179;SDS011;78;48.788;9.010;2023-03-01T05:14:31;67.00;;;24.70;;
179;SDS011;78;48.788;9.010;2023-03-01T05:16:57;63.33;;;24.33;;
179;SDS011;78;48.788;9.010;2023-03-01T05:19:29;59.93;;;23.70;;
179;SDS011;78;48.788;9.010;2023-03-01T05:21:56;63.27;;;24.40;;
179;SDS011;78;48.788;9.010;2023-03-01T05:24:32;63.13;;;24.60;;
179;SDS011;78;48.788;9.010;2023-03-01T05:26:59;60.50;;;24.37;;
179;SDS011;78;48.788;9.010;2023-03-01T05:29:26;63.37;;;25.20;;
179;SDS011;78;48.788;9.010;2023-03-01T05:31:57;62.30;;;23.73;;
179;SDS011;78;48.788;9.010;2023-03-01T05:34:24;64.70;;;25.17;;
179;SDS011;78;48.788;9.010;2023-03-01T05:36:52;63.40;;;25.57;;
179;SDS011;78;48.788;9.010;2023-03-01T05:39:19;60.27;;;24.90;;
179;SDS011;78;48.788;9.010;2023-03-01T05:41:46;59.70;;;24.70;;
179;SDS011;78;48.788;9.010;2023-03-01T05:44:12;64.37;;;24.97;;
179;SDS011;78;48.788;9.010;2023-03-01T05:46:40;65.20;;;25.23;;
179;SDS011;78;48.788;9.010;2023-03-01T05:49:06;60.90;;;24.50;;
179;SDS011;78;48.788;9.010;2023-03-01T05:51:32;63.33;;;25.10;;
179;SDS011;78;48.788;9.010;2023-03-01T05:53:59;63.40;;;25.00;;
179;SDS011;78;48.788;9.010;2023-03-01T05:56:25;64.67;;;26.27;;
179;SDS011;78;48.788;9.010;2023-03-01T05:58:52;63.53;;;25.90;;
179;SDS011;78;48.788;9.010;2023-03-01T06:01:17;68.43;;;26.43;;
179;SDS011;78;48.788;9.010;2023-03-01T06:03:44;65.90;;;26.00;;
179;SDS011;78;48.788;9.010;2023-03-01T06:06:10;65.40;;;25.27;;
179;SDS011;78;48.788;9.010;2023-03-01T06:08:36;68.03;;;24.97;;
179;SDS011;78;48.788;9.010;2023-03-01T06:11:02;65.67;;;26.57;;
179;SDS011;78;48.788;9.010;2023-03-01T06:13:28;65.20;;;27.10;;
179;SDS011;78;48.788;9.010;2023-03-01T06:15:55;63.67;;;25.67;;
179;SDS011;78;48.788;9.010;2023-03-01T06:18:21;63.20;;;26.50;;
179;SDS011;78;48.788;9.010;2023-03-01T06:20:54;66.07;;;26.53;;
179;SDS011;78;48.788;9.010;2023-03-01T06:23:21;72.50;;;26.83;;
179;SDS011;78;48.788;9.010;2023-03-01T06:25:47;65.50;;;25.50;;
179;SDS011;78;48.788;9.010;2023-03-01T06:28:13;63.87;;;25.50;;
179;SDS011;78;48.788;9.010;2023-03-01T06:30:39;65.77;;;26.10;;
179;SDS011;78;48.788;9.010;2023-03-01T06:33:06;66.10;;;25.03;;
179;SDS011;78;48.788;9.010;2023-03-01T06:35:33;67.03;;;25.00;;
179;SDS011;78;48.788;9.010;2023-03-01T06:38:00;63.83;;;25.00;;
179;SDS011;78;48.788;9.010;2023-03-01T06:40:27;64.87;;;25.90;;
179;SDS011;78;48.788;9.010;2023-03-01T06:42:53;61.67;;;24.90;;
179;SDS011;78;48.788;9.010;2023-03-01T06:45:20;64.80;;;24.13;;
179;SDS011;78;48.788;9.010;2023-03-01T06:47:46;65.50;;;25.73;;
179;SDS011;78;48.788;9.010;2023-03-01T06:50:13;63.37;;;25.63;;
179;SDS011;78;48.788;9.010;2023-03-01T06:52:40;66.67;;;25.87;;
179;SDS011;78;48.788;9.010;2023-03-01T06:55:06;65.93;;;25.83;;
179;SDS011;78;48.788;9.010;2023-03-01T06:57:33;62.10;;;24.83;;
179;SDS011;78;48.788;9.010;2023-03-01T06:59:59;63.10;;;25.80;;
179;SDS011;78;48.788;9.010;2023-03-01T07:02:25;66.87;;;26.37;;
179;SDS011;78;48.788;9.010;2023-03-01T07:04:52;74.23;;;25.90;;
179;SDS011;78;48.788;9.010;2023-03-01T07:07:18;67.90;;;24.90;;
179;SDS011;78;48.788;9.010;2023-03-01T07:09:45;67.40;;;26.33;;
179;SDS011;78;48.788;9.010;2023-03-01T07:12:11;68.20;;;26.50;;
179;SDS011;78;48.788;9.010;2023-03-01T07:14:37;63.83;;;25.37;;
179;SDS011;78;48.788;9.010;2023-03-01T07:17:03;71.77;;;25.67;;
179;SDS011;78;48.788;9.010;2023-03-01T07:19:29;68.23;;;27.70;;
179;SDS011;78;48.788;9.010;2023-03-01T07:21:55;64.33;;;24.90;;
179;SDS011;78;48.788;9.010;2023-03-01T07:24:21;61.03;;;24.47;;
179;SDS011;78;48.788;9.010;2023-03-01T07:26:48;66.30;;;25.30;;
179;SDS011;78;48.788;9.010;2023-03-01T07:29:15;68.23;;;26.97;;
179;SDS011;78;48.788;9.010;2023-03-01T07:31:41;66.80;;;25.77;;
179;SDS011;78;48.788;9.010;2023-03-01T07:34:07;69.53;;;25.00;;
179;SDS011;78;48.788;9.010;2023-03-01T07:36:33;61.13;;;25.07;;
179;SDS011;78;48.788;9.010;2023-03-01T07:38:59;67.63;;;26.60;;
179;SDS011;78;48.788;9.010;2023-03-01T07:41:27;63.17;;;25.07;;
179;SDS011;78;48.788;9.010;2023-03-01T07:43:53;65.40;;;25.70;;
179;SDS011;78;48.788;9.010;2023-03-01T07:46:19;66.40;;;26.33;;
179;SDS011;78;48.788;9.010;2023-03-01T07:48:45;65.33;;;25.27;;
179;SDS011;78;48.788;9.010;2023-03-01T07:51:11;68.10;;;26.93;;
179;SDS011;78;48.788;9.010;2023-03-01T07:53:37;76.17;;;25.87;;
179;SDS011;78;48.788;9.010;2023-03-01T07:56:08;65.03;;;26.10;;
179;SDS011;78;48.788;9.010;2023-03-01T07:58:34;66.77;;;25.80;;
179;SDS011;78;48.788;9.010;2023-03-01T08:01:04;69.10;;;25.40;;
179;SDS011;78;48.788;9.010;2023-03-01T08:03:31;67.73;;;26.50;;
179;SDS011;78;48.788;9.010;2023-03-01T08:05:59;66.20;;;26.47;;
179;SDS011;78;48.788;9.010;2023-03-01T08:08:25;69.20;;;28.20;;
179;SDS011;78;48.788;9.010;2023-03-01T08:10:51;69.80;;;28.23;;
179;SDS011;78;48.788;9.010;2023-03-01T08:13:17;66.03;;;27.57;;
179;SDS011;78;48.788;9.010;2023-03-01T08:15:47;78.77;;;27.77;;
179;SDS011;78;48.788;9.010;2023-03-01T08:18:14;68.90;;;26.57;;
179;SDS011;78;48.788;9.010;2023-03-01T08:20:40;63.33;;;26.17;;
179;SDS011;78;48.788;9.010;2023-03-01T08:23:06;67.80;;;27.00;;
179;SDS011;78;48.788;9.010;2023-03-01T08:25:32;76.63;;;28.80;;
179;SDS011;78;48.788;9.010;2023-03-01T08:27:59;69.73;;;25.63;;
179;SDS011;78;48.788;9.010;2023-03-01T08:30:25;77.13;;;28.60;;
179;SDS011;78;48.788;9.010;2023-03-01T08:32:52;62.83;;;25.60;;
179;SDS011;78;48.788;9.010;2023-03-01T08:35:19;70.00;;;28.40;;
179;SDS011;78;48.788;9.010;2023-03-01T08:37:45;61.13;;;25.83;;
179;SDS011;78;48.788;9.010;2023-03-01T08:40:11;71.33;;;28.77;;
179;SDS011;78;48.788;9.010;2023-03-01T08:42:38;82.40;;;28.07;;
179;SDS011;78;48.788;9.010;2023-03-01T08:45:06;67.33;;;27.57;;
179;SDS011;78;48.788;9.010;2023-03-01T08:47:33;71.40;;;27.53;;
179;SDS011;78;48.788;9.010;2023-03-01T08:49:59;66.77;;;27.37;;
179;SDS011;78;48.788;9.010;2023-03-01T08:52:25;68.20;;;27.23;;
179;SDS011;78;48.788;9.010;2023-03-01T08:54:52;67.03;;;26.57;;
179;SDS011;78;48.788;9.010;2023-03-01T08:57:17;69.87;;;27.03;;
179;SDS011;78;48.788;9.010;2023-03-01T08:59:44;67.43;;;27.60;;
179;SDS011;78;48.788;9.010;2023-03-01T09:02:12;59.77;;;25.10;;
179;SDS011;78;48.788;9.010;2023-03-01T09:04:38;62.13;;;25.27;;
179;SDS011;78;48.788;9.010;2023-03-01T09:07:04;68.77;;;27.30;;
179;SDS011;78;48.788;9.010;2023-03-01T09:09:30;69.73;;;28.20;;
179;SDS011;78;48.788;9.010;2023-03-01T09:11:56;65.37;;;26.50;;
179;SDS011;78;48.788;9.010;2023-03-01T09:14:22;65.60;;;27.33;;
179;SDS011;78;48.788;9.010;2023-03-01T09:16:48;65.80;;;26.67;;
179;SDS011;78;48.788;9.010;2023-03-01T09:19:14;69.90;;;28.70;;
179;SDS011;78;48.788;9.010;2023-03-01T09:21:40;69.20;;;27.50;;
179;SDS011;78;48.788;9.010;2023-03-01T09:24:07;66.20;;;27.77;;
179;SDS011;78;48.788;9.010;2023-03-01T09:26:37;72.27;;;28.00;;
179;SDS011;78;48.788;9.010;2023-03-01T09:29:03;62.93;;;27.20;;
179;SDS011;78;48.788;9.010;2023-03-01T09:31:29;62.40;;;25.10;;
179;SDS011;78;48.788;9.010;2023-03-01T09:33:56;64.97;;;27.17;;
179;SDS011;78;48.788;9.010;2023-03-01T09:36:23;64.23;;;25.73;;
179;SDS011;78;48.788;9.010;2023-03-01T09:38:53;64.20;;;26.67;;
179;SDS011;78;48.788;9.010;2023-03-01T09:44:47;63.77;;;26.97;;
179;SDS011;78;48.788;9.010;2023-03-01T09:46:53;68.20;;;27.67;;
179;SDS011;78;48.788;9.010;2023-03-01T09:49:21;63.17;;;26.07;;
179;SDS011;78;48.788;9.010;2023-03-01T09:52:03;65.20;;;27.10;;
179;SDS011;78;48.788;9.010;2023-03-01T09:54:33;62.57;;;26.63;;
179;SDS011;78;48.788;9.010;2023-03-01T09:57:23;68.30;;;28.57;;
179;SDS011;78;48.788;9.010;2023-03-01T09:59:52;64.80;;;26.23;;
179;SDS011;78;48.788;9.010;2023-03-01T10:04:52;63.27;;;26.60;;
179;SDS011;78;48.788;9.010;2023-03-01T10:09:51;66.37;;;26.97;;
179;SDS011;78;48.788;9.010;2023-03-01T10:12:18;62.97;;;27.37;;
179;SDS011;78;48.788;9.010;2023-03-01T10:15:02;61.70;;;27.43;;
179;SDS011;78;48.788;9.010;2023-03-01T10:20:24;59.53;;;25.83;;
179;SDS011;78;48.788;9.010;2023-03-01T10:22:50;67.80;;;28.77;;
179;SDS011;78;48.788;9.010;2023-03-01T10:28:16;60.30;;;26.10;;
179;SDS011;78;48.788;9.010;2023-03-01T10:30:42;60.30;;;26.57;;
179;SDS011;78;48.788;9.010;2023-03-01T10:35:40;67.77;;;26.03;;
179;SDS011;78;48.788;9.010;2023-03-01T10:38:11;62.13;;;26.13;;
179;SDS011;78;48.788;9.010;2023-03-01T10:40:54;66.20;;;28.53;;
179;SDS011;78;48.788;9.010;2023-03-01T10:43:22;66.23;;;28.03;;
179;SDS011;78;48.788;9.010;2023-03-01T10:45:48;62.70;;;28.07;;
179;SDS011;78;48.788;9.010;2023-03-01T10:50:42;62.63;;;27.47;;
179;SDS011;78;48.788;9.010;2023-03-01T10:53:20;58.87;;;26.80;;
179;SDS011;78;48.788;9.010;2023-03-01T10:55:48;60.33;;;27.37;;
179;SDS011;78;48.788;9.010;2023-03-01T10:58:22;56.97;;;26.33;;
179;SDS011;78;48.788;9.010;2023-03-01T11:03:21;57.77;;;26.47;;
179;SDS011;78;48.788;9.010;2023-03-01T11:08:39;60.00;;;27.13;;
179;SDS011;78;48.788;9.010;2023-03-01T11:13:39;56.97;;;27.10;;
179;SDS011;78;48.788;9.010;2023-03-01T11:16:13;54.00;;;26.30;;
179;SDS011;78;48.788;9.010;2023-03-01T11:18:39;52.93;;;25.60;;
179;SDS011;78;48.788;9.010;2023-03-01T11:21:05;54.60;;;26.30;;
179;SDS011;78;48.788;9.010;2023-03-01T11:23:31;54.93;;;26.80;;
179;SDS011;78;48.788;9.010;2023-03-01T11:26:07;53.60;;;26.73;;
179;SDS011;78;48.788;9.010;2023-03-01T11:28:34;53.70;;;26.30;;
179;SDS011;78;48.788;9.010;2023-03-01T11:31:06;55.70;;;26.17;;
179;SDS011;78;48.788;9.010;2023-03-01T11:33:41;53.67;;;25.10;;
179;SDS011;78;48.788;9.010;2023-03-01T11:38:40;55.90;;;26.97;;
179;SDS011;78;48.788;9.010;2023-03-01T11:41:14;52.50;;;23.93;;
179;SDS011;78;48.788;9.010;2023-03-01T11:43:45;49.97;;;23.87;;
179;SDS011;78;48.788;9.010;2023-03-01T11:59:35;58.30;;;25.60;;
179;SDS011;78;48.788;9.010;2023-03-01T12:12:35;50.30;;;23.80;;
179;SDS011;78;48.788;9.010;2023-03-01T12:17:55;48.90;;;22.60;;
179;SDS011;78;48.788;9.010;2023-03-01T12:20:30;47.60;;;22.47;;
179;SDS011;78;48.788;9.010;2023-03-01T12:25:45;48.93;;;21.80;;
179;SDS011;78;48.788;9.010;2023-03-01T12:31:04;47.70;;;22.90;;
179;SDS011;78;48.788;9.010;2023-03-01T12:33:32;49.80;;;23.17;;
179;SDS011;78;48.788;9.010;2023-03-01T12:38:32;47.83;;;22.43;;
179;SDS011;78;48.788;9.010;2023-03-01T12:46:28;48.77;;;24.20;;
179;SDS011;78;48.788;9.010;2023-03-01T12:49:14;49.13;;;22.93;;
179;SDS011;78;48.788;9.010;2023-03-01T12:51:44;52.53;;;23.87;;
179;SDS011;78;48.788;9.010;2023-03-01T12:54:17;51.30;;;23.17;;
179;SDS011;78;48.788;9.010;2023-03-01T12:56:44;49.23;;;23.03;;
179;SDS011;78;48.788;9.010;2023-03-01T12:59:33;49.30;;;23.33;;
179;SDS011;78;48.788;9.010;2023-03-01T13:02:12;45.47;;;21.73;;
179;SDS011;78;48.788;9.010;2023-03-01T13:04:44;51.63;;;23.00;;
179;SDS011;78;48.788;9.010;2023-03-01T13:07:19;45.53;;;21.60;;
179;SDS011;78;48.788;9.010;2023-03-01T13:10:02;47.60;;;22.23;;
179;SDS011;78;48.788;9.010;2023-03-01T13:17:49;50.20;;;21.60;;
179;SDS011;78;48.788;9.010;2023-03-01T13:20:17;46.90;;;23.03;;
179;SDS011;78;48.788;9.010;2023-03-01T13:22:45;44.40;;;21.40;;
179;SDS011;78;48.788;9.010;2023-03-01T13:25:16;52.00;;;23.87;;
179;SDS011;78;48.788;9.010;2023-03-01T13:27:43;43.97;;;21.27;;
179;SDS011;78;48.788;9.010;2023-03-01T13:32:56;49.40;;;23.27;;
179;SDS011;78;48.788;9.010;2023-03-01T13:35:44;50.50;;;22.47;;
179;SDS011;78;48.788;9.010;2023-03-01T13:43:54;51.80;;;23.37;;
179;SDS011;78;48.788;9.010;2023-03-01T13:46:17;52.97;;;22.83;;
179;SDS011;78;48.788;9.010;2023-03-01T13:48:45;56.57;;;23.97;;
179;SDS011;78;48.788;9.010;2023-03-01T13:51:11;50.27;;;23.23;;
179;SDS011;78;48.788;9.010;2023-03-01T13:53:42;53.03;;;23.30;;
179;SDS011;78;48.788;9.010;2023-03-01T13:56:11;50.43;;;23.83;;
179;SDS011;78;48.788;9.010;2023-03-01T13:59:12;58.07;;;25.70;;
179;SDS011;78;48.788;9.010;2023-03-01T14:01:31;57.90;;;26.47;;
179;SDS011;78;48.788;9.010;2023-03-01T14:03:57;52.77;;;24.77;;
179;SDS011;78;48.788;9.010;2023-03-01T14:06:27;54.03;;;24.10;;
179;SDS011;78;48.788;9.010;2023-03-01T14:09:03;54.10;;;24.77;;
179;SDS011;78;48.788;9.010;2023-03-01T14:19:17;51.50;;;23.07;;
179;SDS011;78;48.788;9.010;2023-03-01T14:21:44;49.77;;;22.70;;
179;SDS011;78;48.788;9.010;2023-03-01T14:24:16;54.83;;;23.57;;
179;SDS011;78;48.788;9.010;2023-03-01T14:26:43;52.37;;;24.93;;
179;SDS011;78;48.788;9.010;2023-03-01T14:29:23;54.53;;;24.30;;
179;SDS011;78;48.788;9.010;2023-03-01T14:31:49;52.10;;;23.90;;
179;SDS011;78;48.788;9.010;2023-03-01T14:34:19;53.77;;;23.90;;
179;SDS011;78;48.788;9.010;2023-03-01T14:36:45;53.40;;;24.27;;
179;SDS011;78;48.788;9.010;2023-03-01T14:39:23;47.33;;;22.40;;
179;SDS011;78;48.788;9.010;2023-03-01T14:41:50;56.40;;;24.30;;
179;SDS011;78;48.788;9.010;2023-03-01T14:44:19;51.17;;;23.27;;
179;SDS011;78;48.788;9.010;2023-03-01T14:46:51;52.27;;;24.40;;
179;SDS011;78;48.788;9.010;2023-03-01T14:49:19;49.93;;;23.73;;
179;SDS011;78;48.788;9.010;2023-03-01T14:52:07;49.93;;;22.57;;
179;SDS011;78;48.788;9.010;2023-03-01T14:57:00;55.37;;;24.60;;
179;SDS011;78;48.788;9.010;2023-03-01T14:59:27;50.87;;;23.63;;
179;SDS011;78;48.788;9.010;2023-03-01T15:01:54;52.17;;;23.40;;
179;SDS011;78;48.788;9.010;2023-03-01T15:04:21;49.30;;;23.10;;
179;SDS011;78;48.788;9.010;2023-03-01T15:06:49;49.27;;;23.50;;
179;SDS011;78;48.788;9.010;2023-03-01T15:09:16;51.03;;;22.93;;
179;SDS011;78;48.788;9.010;2023-03-01T15:11:43;52.80;;;25.07;;
179;SDS011;78;48.788;9.010;2023-03-01T15:14:25;55.00;;;25.17;;
179;SDS011;78;48.788;9.010;2023-03-01T15:16:52;51.50;;;23.53;;
179;SDS011;78;48.788;9.010;2023-03-01T15:19:18;51.90;;;24.27;;
179;SDS011;78;48.788;9.010;2023-03-01T15:21:44;51.83;;;23.80;;
179;SDS011;78;48.788;9.010;2023-03-01T15:26:51;51.17;;;23.50;;
179;SDS011;78;48.788;9.010;2023-03-01T15:29:21;52.93;;;22.90;;
179;SDS011;78;48.788;9.010;2023-03-01T15:32:01;54.30;;;25.50;;
179;SDS011;78;48.788;9.010;2023-03-01T15:34:29;53.23;;;24.43;;
179;SDS011;78;48.788;9.010;2023-03-01T15:36:57;50.37;;;23.77;;
179;SDS011;78;48.788;9.010;2023-03-01T15:42:06;53.53;;;23.27;;
179;SDS011;78;48.788;9.010;2023-03-01T15:44:36;57.67;;;25.67;;
179;SDS011;78;48.788;9.010;2023-03-01T15:47:08;53.17;;;22.63;;
179;SDS011;78;48.788;9.010;2023-03-01T15:49:47;51.77;;;22.50;;
179;SDS011;78;48.788;9.010;2023-03-01T15:52:19;56.37;;;23.70;;
179;SDS011;78;48.788;9.010;2023-03-01T15:54:55;52.47;;;23.63;;
179;SDS011;78;48.788;9.010;2023-03-01T15:57:21;56.90;;;23.80;;
179;SDS011;78;48.788;9.010;2023-03-01T15:59:47;56.13;;;23.83;;
179;SDS011;78;48.788;9.010;2023-03-01T16:02:14;56.13;;;23.80;;
179;SDS011;78;48.788;9.010;2023-03-01T16:04:40;58.53;;;25.40;;
179;SDS011;78;48.788;9.010;2023-03-01T16:07:08;56.50;;;24.10;;
179;SDS011;78;48.788;9.010;2023-03-01T16:09:34;54.97;;;24.00;;
179;SDS011;78;48.788;9.010;2023-03-01T16:12:01;55.57;;;23.33;;
179;SDS011;78;48.788;9.010;2023-03-01T16:14:27;56.50;;;23.93;;
179;SDS011;78;48.788;9.010;2023-03-01T16:16:53;54.57;;;23.60;;
179;SDS011;78;48.788;9.010;2023-03-01T16:19:19;58.67;;;23.67;;
179;SDS011;78;48.788;9.010;2023-03-01T16:21:45;55.13;;;23.10;;
179;SDS011;78;48.788;9.010;2023-03-01T16:24:13;53.87;;;23.63;;
179;SDS011;78;48.788;9.010;2023-03-01T16:26:39;56.90;;;23.93;;
179;SDS011;78;48.788;9.010;2023-03-01T16:29:07;62.33;;;24.00;;
179;SDS011;78;48.788;9.010;2023-03-01T16:31:33;59.67;;;24.63;;
179;SDS011;78;48.788;9.010;2023-03-01T16:33:59;64.00;;;23.80;;
179;SDS011;78;48.788;9.010;2023-03-01T16:36:26;63.07;;;23.10;;
179;SDS011;78;48.788;9.010;2023-03-01T16:38:57;55.27;;;23.50;;
179;SDS011;78;48.788;9.010;2023-03-01T16:41:23;58.93;;;24.63;;
179;SDS011;78;48.788;9.010;2023-03-01T16:43:49;56.03;;;23.00;;
179;SDS011;78;48.788;9.010;2023-03-01T16:46:20;58.03;;;23.73;;
179;SDS011;78;48.788;9.010;2023-03-01T16:48:48;60.00;;;24.00;;
179;SDS011;78;48.788;9.010;2023-03-01T16:51:14;56.70;;;23.30;;
179;SDS011;78;48.788;9.010;2023-03-01T16:53:40;61.40;;;25.03;;
179;SDS011;78;48.788;9.010;2023-03-01T16:56:07;63.10;;;23.77;;
179;SDS011;78;48.788;9.010;2023-03-01T16:58:33;56.27;;;22.80;;
179;SDS011;78;48.788;9.010;2023-03-01T17:01:03;58.20;;;24.27;;
179;SDS011;78;48.788;9.010;2023-03-01T17:03:29;54.40;;;22.60;;
179;SDS011;78;48.788;9.010;2023-03-01T17:05:55;60.20;;;24.27;;
179;SDS011;78;48.788;9.010;2023-03-01T17:08:21;66.37;;;24.10;;
179;SDS011;78;48.788;9.010;2023-03-01T17:10:47;63.33;;;24.00;;
179;SDS011;78;48.788;9.010;2023-03-01T17:13:14;57.80;;;23.13;;
179;SDS011;78;48.788;9.010;2023-03-01T17:15:40;60.93;;;23.33;;
179;SDS011;78;48.788;9.010;2023-03-01T17:18:07;59.60;;;22.90;;
179;SDS011;78;48.788;9.010;2023-03-01T17:20:33;62.13;;;24.47;;
179;SDS011;78;48.788;9.010;2023-03-01T17:22:59;59.30;;;24.60;;
179;SDS011;78;48.788;9.010;2023-03-01T17:25:25;60.90;;;24.80;;